Time;durP1;ratioP1;P1;durP2;ratioP2;P2;SDS_P1;SDS_P2;PMS_P1;PMS_P2;Temp;Humidity;BMP_temperature;BMP_pressure;BME280_temperature;BME280_humidity;BME280_pressure;Samples;Min_cycle;Max_cycle;Signal;HPM_P1;HPM_P2
2020/12/24 00:00:11;;;;;;;44.17;22.13;;;;;;;8.85;88.41;99301.03;120016;1148;23078;-62
2020/12/24 00:03:00;;;;;;;47.93;23.33;;;;;;;8.86;88.63;99296.20;120056;1148;23422;-62
2020/12/24 00:05:29;;;;;;;46.50;21.73;;;;;;;8.85;88.59;99295.47;120098;1148;22927;-62
2020/12/24 00:07:59;;;;;;;45.17;20.83;;;;;;;8.87;89.27;99295.73;120206;1147;23041;-62
2020/12/24 00:10:28;;;;;;;42.20;20.63;;;;;;;8.90;88.71;99291.95;120189;1147;22914;-62
2020/12/24 00:12:58;;;;;;;43.65;21.25;;;;;;;8.91;89.23;99303.86;120044;1148;22924;-60
2020/12/24 00:15:27;;;;;;;45.17;21.37;;;;;;;8.92;88.93;99308.94;120284;1148;28330;-61
2020/12/24 00:17:57;;;;;;;42.48;19.90;;;;;;;8.96;89.00;99308.70;120125;1148;23018;-62
2020/12/24 00:20:26;;;;;;;42.87;18.57;;;;;;;8.99;88.61;99302.17;120324;1148;22917;-63
2020/12/24 00:22:55;;;;;;;39.67;17.33;;;;;;;9.00;88.88;99303.69;119988;1148;23231;-63
2020/12/24 00:25:24;;;;;;;48.95;19.37;;;;;;;9.04;88.88;99301.48;120032;1147;23047;-62
2020/12/24 00:27:53;;;;;;;37.37;16.10;;;;;;;9.06;88.60;99300.98;119965;1148;24607;-62
2020/12/24 00:30:23;;;;;;;37.23;16.67;;;;;;;9.07;88.75;99305.28;120270;1148;22997;-61
2020/12/24 00:32:52;;;;;;;36.00;16.25;;;;;;;9.11;89.23;99303.03;120058;1148;27604;-62
2020/12/24 00:35:21;;;;;;;38.00;16.53;;;;;;;9.13;89.26;99303.30;120032;1147;22931;-62
2020/12/24 00:37:50;;;;;;;44.30;18.57;;;;;;;9.19;88.87;99304.12;120984;1147;22919;-62
2020/12/24 00:40:19;;;;;;;36.17;17.93;;;;;;;9.20;88.49;99306.44;120012;1148;23048;-63
2020/12/24 00:42:49;;;;;;;36.17;17.07;;;;;;;9.22;88.54;99308.72;119956;1148;25468;-62
2020/12/24 00:45:18;;;;;;;39.00;17.30;;;;;;;9.23;89.19;99308.22;119981;1148;24557;-62
2020/12/24 00:47:48;;;;;;;36.10;15.47;;;;;;;9.24;89.06;99295.06;120001;1148;22991;-64
2020/12/24 00:50:18;;;;;;;31.77;13.78;;;;;;;9.22;88.39;99301.14;119986;1148;23012;-63
2020/12/24 00:52:47;;;;;;;35.52;14.28;;;;;;;9.21;88.81;99296.81;119965;1148;22923;-62
2020/12/24 00:55:16;;;;;;;32.77;14.50;;;;;;;9.22;88.98;99287.22;119947;1148;27598;-62
2020/12/24 00:57:45;;;;;;;29.37;12.73;;;;;;;9.25;88.96;99282.69;120024;1148;24737;-64
2020/12/24 01:00:14;;;;;;;30.37;13.30;;;;;;;9.23;88.20;99283.16;119895;1148;24729;-62
2020/12/24 01:02:43;;;;;;;33.10;13.03;;;;;;;9.20;87.94;99292.52;119985;1148;24692;-62
2020/12/24 01:05:12;;;;;;;31.10;12.60;;;;;;;9.19;89.07;99298.55;119984;1148;23036;-62
2020/12/24 01:07:42;;;;;;;29.97;14.30;;;;;;;9.19;88.62;99290.20;119960;1148;22915;-62
2020/12/24 01:10:11;;;;;;;33.48;15.68;;;;;;;9.22;88.93;99292.78;120132;1147;23372;-63
2020/12/24 01:12:41;;;;;;;33.50;14.15;;;;;;;9.23;88.54;99294.30;120232;1148;22931;-63
2020/12/24 01:15:11;;;;;;;31.83;13.10;;;;;;;9.24;89.14;99304.19;119985;1148;24731;-63
2020/12/24 01:17:40;;;;;;;28.10;13.32;;;;;;;9.26;88.76;99287.75;120084;1148;26373;-62
2020/12/24 01:20:09;;;;;;;27.67;12.53;;;;;;;9.28;88.48;99284.47;120166;1148;22942;-62
2020/12/24 01:22:40;;;;;;;29.43;12.80;;;;;;;9.28;88.94;99288.02;120013;1148;22913;-62
2020/12/24 01:25:09;;;;;;;30.87;14.27;;;;;;;9.29;88.54;99297.89;120042;1148;27729;-63
2020/12/24 01:27:40;;;;;;;31.53;14.27;;;;;;;9.30;88.35;99293.86;120050;1148;22913;-62
2020/12/24 01:30:09;;;;;;;27.47;11.77;;;;;;;9.32;89.01;99302.48;119906;1150;23032;-62
2020/12/24 01:32:39;;;;;;;26.60;10.80;;;;;;;9.34;89.25;99310.34;120075;1148;22948;-62
2020/12/24 01:35:08;;;;;;;25.00;10.85;;;;;;;9.34;89.18;99305.55;120026;1148;23365;-63
2020/12/24 01:37:38;;;;;;;23.33;9.80;;;;;;;9.37;88.51;99292.66;119943;1148;22942;-64
2020/12/24 01:40:07;;;;;;;18.03;6.23;;;;;;;9.39;88.96;99292.93;119987;1148;23024;-62
2020/12/24 01:42:36;;;;;;;16.23;5.83;;;;;;;9.41;88.76;99301.55;120064;1151;23190;-62
2020/12/24 01:45:05;;;;;;;14.80;5.63;;;;;;;9.43;88.60;99304.61;120011;1148;22942;-63
2020/12/24 01:47:35;;;;;;;15.75;4.85;;;;;;;9.45;88.73;99308.44;120203;1147;22952;-63
2020/12/24 01:50:05;;;;;;;16.43;4.53;;;;;;;9.49;88.62;99302.64;120036;1148;22969;-62
2020/12/24 01:52:36;;;;;;;11.35;3.27;;;;;;;9.50;89.04;99293.77;120017;1148;27682;-62
2020/12/24 01:55:07;;;;;;;14.47;3.80;;;;;;;9.53;89.13;99298.38;119995;1148;25934;-62
2020/12/24 01:57:38;;;;;;;10.03;2.97;;;;;;;9.56;89.09;99294.58;120033;1148;22965;-62
2020/12/24 02:00:09;;;;;;;11.77;2.60;;;;;;;9.58;88.55;99291.32;120069;1148;22941;-62
2020/12/24 02:02:39;;;;;;;11.20;2.50;;;;;;;9.61;88.68;99290.31;120012;1148;22972;-63
2020/12/24 02:05:09;;;;;;;11.50;2.12;;;;;;;9.64;88.80;99283.77;120125;1148;22902;-64
2020/12/24 02:07:38;;;;;;;10.63;1.90;;;;;;;9.68;88.58;99281.52;120116;1148;23075;-63
2020/12/24 02:10:06;;;;;;;10.43;2.20;;;;;;;9.70;88.52;99285.30;120029;1148;27322;-62
2020/12/24 02:12:36;;;;;;;9.17;1.80;;;;;;;9.74;89.31;99285.09;120168;1148;23075;-62
2020/12/24 02:15:05;;;;;;;10.87;2.40;;;;;;;9.75;88.77;99294.97;120213;1148;23010;-64
2020/12/24 02:17:34;;;;;;;8.17;1.60;;;;;;;9.76;88.89;99293.73;120049;1148;22917;-62
2020/12/24 02:20:03;;;;;;;8.80;1.80;;;;;;;9.76;88.33;99290.94;120099;1148;26650;-61
2020/12/24 02:22:32;;;;;;;8.25;1.80;;;;;;;9.75;89.04;99286.61;120149;1148;27342;-61
2020/12/24 02:25:02;;;;;;;7.00;1.50;;;;;;;9.79;88.82;99287.91;120074;1148;24731;-62
2020/12/24 02:27:31;;;;;;;10.82;1.67;;;;;;;9.82;88.51;99288.95;120079;1148;23018;-63
2020/12/24 02:30:02;;;;;;;9.00;1.67;;;;;;;9.80;88.45;99283.11;119999;1147;27433;-62
2020/12/24 02:32:31;;;;;;;11.23;1.77;;;;;;;9.77;88.72;99272.94;120099;1148;22964;-63
2020/12/24 02:35:01;;;;;;;10.78;1.90;;;;;;;9.76;88.36;99266.63;120118;1148;22948;-62
2020/12/24 02:37:30;;;;;;;7.43;1.83;;;;;;;9.76;88.35;99261.05;120190;1148;25708;-62
2020/12/24 02:39:59;;;;;;;8.37;1.63;;;;;;;9.75;88.89;99269.89;120101;1148;22992;-62
2020/12/24 02:42:28;;;;;;;6.77;1.27;;;;;;;9.77;88.83;99272.94;120082;1148;22914;-62
2020/12/24 02:44:57;;;;;;;10.10;1.83;;;;;;;9.79;88.38;99262.06;120008;1148;22945;-62
2020/12/24 02:47:26;;;;;;;8.53;1.50;;;;;;;9.82;88.08;99261.08;120016;1148;22936;-62
2020/12/24 02:49:55;;;;;;;9.00;1.65;;;;;;;9.82;88.46;99263.86;120069;1148;22938;-64
2020/12/24 02:52:26;;;;;;;6.33;1.13;;;;;;;9.84;88.19;99271.72;120025;1148;22938;-63
2020/12/24 02:54:55;;;;;;;7.35;1.40;;;;;;;9.87;88.50;99265.16;120113;1148;22942;-63
2020/12/24 02:57:24;;;;;;;7.60;1.27;;;;;;;9.88;88.28;99255.52;120036;1148;22918;-63
2020/12/24 02:59:53;;;;;;;8.77;1.57;;;;;;;9.89;88.70;99249.44;120034;1148;26381;-62
2020/12/24 03:02:22;;;;;;;6.05;1.40;;;;;;;9.90;88.63;99250.21;119987;1148;24379;-63
2020/12/24 03:04:51;;;;;;;7.17;1.20;;;;;;;9.89;88.46;99257.80;119988;1148;22941;-63
2020/12/24 03:07:20;;;;;;;6.17;1.10;;;;;;;9.90;88.81;99250.21;119926;1147;22969;-63
2020/12/24 03:09:50;;;;;;;5.92;1.52;;;;;;;9.91;87.99;99257.33;120043;1148;22927;-62
2020/12/24 03:12:19;;;;;;;7.37;1.20;;;;;;;9.91;88.68;99255.28;119986;1148;22913;-62
2020/12/24 03:14:50;;;;;;;8.60;1.20;;;;;;;9.92;88.47;99265.19;120039;1148;22925;-62
2020/12/24 03:17:21;;;;;;;10.37;1.80;;;;;;;9.92;88.06;99265.19;120229;1148;25979;-64
2020/12/24 03:19:49;;;;;;;;;;;;;;;9.90;88.48;99267.71;120202;1148;22920;-62
2020/12/24 03:22:17;;;;;;;11.27;2.20;;;;;;;9.90;87.99;99267.71;119994;1148;21623;-64
2020/12/24 03:24:46;;;;;;;9.87;1.83;;;;;;;9.90;88.46;99272.52;119988;1148;23077;-62
2020/12/24 03:27:16;;;;;;;7.37;1.50;;;;;;;9.89;88.21;99276.58;119994;1148;22945;-62
2020/12/24 03:29:45;;;;;;;10.37;1.40;;;;;;;9.91;87.83;99271.27;119991;1148;22969;-62
2020/12/24 03:32:14;;;;;;;5.87;1.57;;;;;;;9.91;88.06;99268.48;119999;1148;22948;-62
2020/12/24 03:34:43;;;;;;;7.90;1.87;;;;;;;9.91;88.46;99272.02;120108;1148;22938;-62
2020/12/24 03:37:12;;;;;;;6.80;1.23;;;;;;;9.91;88.05;99274.80;120005;1148;22913;-63
2020/12/24 03:39:41;;;;;;;6.10;1.37;;;;;;;9.91;88.16;99274.05;119998;1148;23048;-64
2020/12/24 03:42:11;;;;;;;6.57;1.20;;;;;;;9.89;87.61;99274.53;120007;1148;22914;-64
2020/12/24 03:44:40;;;;;;;13.03;1.60;;;;;;;9.89;87.71;99266.17;120017;1148;22969;-63
2020/12/24 03:47:09;;;;;;;11.37;1.70;;;;;;;9.89;87.79;99260.59;120165;1148;23077;-63
2020/12/24 03:49:39;;;;;;;5.33;1.23;;;;;;;9.89;88.14;99268.95;120045;1148;22941;-62
2020/12/24 03:52:08;;;;;;;7.10;1.30;;;;;;;9.90;87.62;99262.13;120022;1148;25695;-62
2020/12/24 03:54:37;;;;;;;7.50;0.93;;;;;;;9.92;87.28;99267.20;120081;1148;24471;-62
2020/12/24 03:57:07;;;;;;;7.50;1.10;;;;;;;9.93;87.39;99263.91;120001;1148;23018;-62
2020/12/24 03:59:36;;;;;;;6.90;1.27;;;;;;;9.94;87.75;99251.52;120048;1148;25967;-63
2020/12/24 04:02:05;;;;;;;7.43;0.90;;;;;;;9.97;88.01;99249.76;119952;1148;23077;-63
2020/12/24 04:04:35;;;;;;;5.43;0.90;;;;;;;9.96;86.98;99253.80;119977;1148;27796;-63
2020/12/24 04:07:05;;;;;;;4.58;1.00;;;;;;;9.96;87.02;99248.98;120022;1148;22938;-63
2020/12/24 04:09:33;;;;;;;5.65;0.95;;;;;;;9.96;87.07;99245.42;120079;1150;22923;-63
2020/12/24 04:12:02;;;;;;;5.17;0.93;;;;;;;9.93;87.67;99254.80;120044;1148;22935;-63
2020/12/24 04:14:32;;;;;;;6.80;0.90;;;;;;;9.91;86.95;99248.97;120077;1148;23006;-61
2020/12/24 04:17:01;;;;;;;3.90;0.80;;;;;;;9.92;87.78;99244.91;120050;1148;23006;-62
2020/12/24 04:19:31;;;;;;;7.35;0.78;;;;;;;9.94;87.44;99243.15;120078;1148;22941;-62
2020/12/24 04:22:00;;;;;;;3.60;0.87;;;;;;;9.94;87.25;99248.72;120106;1146;22920;-63
2020/12/24 04:24:29;;;;;;;4.70;0.95;;;;;;;9.94;87.09;99253.53;120120;1148;23028;-64
2020/12/24 04:26:58;;;;;;;5.50;1.10;;;;;;;9.93;87.44;99268.75;119974;1148;22916;-63
2020/12/24 04:29:27;;;;;;;5.53;1.00;;;;;;;9.94;87.19;99265.45;120064;1148;22941;-62
2020/12/24 04:31:56;;;;;;;8.33;1.70;;;;;;;9.93;87.36;99268.75;119990;1148;24585;-63
2020/12/24 04:34:25;;;;;;;8.43;1.60;;;;;;;9.91;86.74;99268.48;119980;1148;23019;-62
2020/12/24 04:36:54;;;;;;;8.97;1.63;;;;;;;9.90;87.23;99266.94;120016;1148;22928;-63
2020/12/24 04:39:24;;;;;;;10.55;1.90;;;;;;;9.90;86.92;99264.92;120070;1148;26159;-62
2020/12/24 04:41:53;;;;;;;11.03;1.77;;;;;;;9.89;87.11;99259.85;120128;1148;26394;-62
2020/12/24 04:44:23;;;;;;;8.80;1.70;;;;;;;9.87;87.22;99256.80;120185;1147;25935;-62
2020/12/24 04:46:54;;;;;;;8.65;1.10;;;;;;;9.85;86.65;99265.64;120142;1147;22992;-62
2020/12/24 04:49:25;;;;;;;6.77;1.27;;;;;;;9.84;86.35;99264.13;120038;1148;22941;-62
2020/12/24 04:51:54;;;;;;;5.65;0.90;;;;;;;9.76;86.48;99257.49;120176;1148;23022;-62
2020/12/24 04:54:26;;;;;;;3.25;0.72;;;;;;;9.72;86.82;99254.17;120070;1148;23083;-63
2020/12/24 04:57:02;;;;;;;4.07;0.80;;;;;;;9.67;86.50;99238.94;120012;1148;22999;-61
2020/12/24 04:59:31;;;;;;;5.67;1.13;;;;;;;9.64;86.48;99250.32;119978;1148;27277;-62
2020/12/24 05:02:02;;;;;;;4.22;1.00;;;;;;;9.62;86.38;99252.84;120046;1148;23018;-63
2020/12/24 05:04:32;;;;;;;5.57;1.03;;;;;;;9.58;86.41;99238.37;120034;1148;25957;-63
2020/12/24 05:07:06;;;;;;;8.20;1.37;;;;;;;9.56;86.39;99246.44;120003;1148;27404;-63
2020/12/24 05:09:36;;;;;;;6.10;1.40;;;;;;;9.53;86.33;99242.64;120042;1148;23018;-64
2020/12/24 05:12:05;;;;;;;6.90;1.40;;;;;;;9.52;86.21;99248.69;120053;1148;22861;-62
2020/12/24 05:14:39;;;;;;;6.50;1.03;;;;;;;9.51;86.46;99239.59;120023;1148;22942;-62
2020/12/24 05:17:09;;;;;;;8.10;1.10;;;;;;;9.49;86.10;99244.13;120073;1148;22895;-62
2020/12/24 05:19:47;;;;;;;9.37;1.17;;;;;;;9.47;86.35;99244.63;120022;1148;22913;-64
2020/12/24 05:22:18;;;;;;;9.47;1.47;;;;;;;9.45;86.01;99247.15;120019;1148;22901;-63
2020/12/24 05:24:48;;;;;;;11.45;1.30;;;;;;;9.45;86.73;99240.81;120115;1148;22913;-63
2020/12/24 05:27:20;;;;;;;10.97;1.50;;;;;;;9.43;86.52;99243.33;120077;1148;22915;-63
2020/12/24 05:29:52;;;;;;;11.47;1.83;;;;;;;9.42;86.93;99241.78;120011;1147;24041;-62
2020/12/24 05:32:29;;;;;;;6.67;1.40;;;;;;;9.42;86.51;99244.57;119950;1150;22999;-62
2020/12/24 05:35:07;;;;;;;11.45;1.60;;;;;;;9.42;86.31;99244.57;120029;1148;22941;-63
2020/12/24 05:37:36;;;;;;;16.77;2.10;;;;;;;9.40;85.83;99239.50;120177;1148;22918;-63
2020/12/24 05:40:20;;;;;;;11.73;1.60;;;;;;;9.40;85.93;99252.66;120091;1147;22920;-63
2020/12/24 05:42:55;;;;;;;6.85;1.40;;;;;;;9.40;86.10;99250.64;120036;1148;22949;-64
2020/12/24 05:45:27;;;;;;;13.47;2.07;;;;;;;9.41;86.29;99254.20;120091;1148;22896;-62
2020/12/24 05:48:10;;;;;;;13.40;2.40;;;;;;;9.42;86.70;99264.07;120054;1148;23068;-62
2020/12/24 05:50:41;;;;;;;8.10;1.63;;;;;;;9.42;85.92;99247.36;120056;1148;27675;-64
2020/12/24 05:53:12;;;;;;;11.20;1.80;;;;;;;9.42;85.68;99247.36;120293;1147;24592;-62
2020/12/24 05:55:43;;;;;;;5.63;1.10;;;;;;;9.42;85.62;99247.36;120208;1148;22952;-64
2020/12/24 05:58:12;;;;;;;6.63;1.07;;;;;;;9.42;86.21;99250.14;119984;1148;22928;-63
2020/12/24 06:00:42;;;;;;;6.47;1.10;;;;;;;9.42;86.37;99247.36;119955;1148;22913;-62
2020/12/24 06:03:14;;;;;;;5.75;0.85;;;;;;;9.41;85.67;99254.20;120308;1148;23084;-63
2020/12/24 06:05:59;;;;;;;8.17;1.57;;;;;;;9.40;86.25;99255.45;120109;1148;22915;-63
2020/12/24 06:08:30;;;;;;;4.80;1.00;;;;;;;9.39;86.69;99254.70;120058;1148;22921;-63
2020/12/24 06:11:02;;;;;;;;;;;;;;;9.39;85.75;99248.36;120105;1148;25982;-63
2020/12/24 06:13:42;;;;;;;9.80;1.17;;;;;;;9.38;85.94;99235.68;120115;1148;21556;-64
2020/12/24 06:16:13;;;;;;;7.65;1.15;;;;;;;9.39;85.76;99226.84;120161;1148;23134;-63
2020/12/24 06:18:41;;;;;;;;;;;;;;;9.41;85.71;99220.77;120114;1147;22951;-63
2020/12/24 06:21:16;;;;;;;9.90;1.70;;;;;;;9.41;86.07;99220.77;119957;1147;24546;-63
2020/12/24 06:23:52;;;;;;;5.17;1.27;;;;;;;9.42;85.89;99222.28;120226;1148;23051;-64
2020/12/24 06:26:27;;;;;;;4.67;1.10;;;;;;;9.43;85.37;99219.02;120100;1148;22938;-63
2020/12/24 06:29:01;;;;;;;7.20;1.00;;;;;;;9.43;85.27;99218.25;119979;1148;22995;-63
2020/12/24 06:31:33;;;;;;;6.50;1.00;;;;;;;9.45;85.61;99219.29;120088;1148;22941;-63
2020/12/24 06:34:22;;;;;;;5.97;1.00;;;;;;;9.46;86.04;99215.23;119955;1147;23077;-63
2020/12/24 06:36:52;;;;;;;4.78;1.12;;;;;;;9.47;85.85;99200.05;120196;1148;25938;-63
2020/12/24 06:39:42;;;;;;;3.67;1.00;;;;;;;9.49;85.30;99196.77;120118;1148;23054;-62
2020/12/24 06:42:43;;;;;;;6.17;0.90;;;;;;;9.48;85.29;99184.85;120332;1147;23883;-62
2020/12/24 06:45:31;;;;;;;3.13;0.70;;;;;;;9.50;84.94;99181.56;120108;1148;22958;-63
2020/12/24 06:48:19;;;;;;;3.10;0.60;;;;;;;9.50;85.35;99173.97;120013;1148;22909;-64
2020/12/24 06:50:49;;;;;;;5.17;0.70;;;;;;;9.51;85.46;99186.66;120068;1147;22923;-63
2020/12/24 06:53:26;;;;;;;2.58;0.68;;;;;;;9.54;85.60;99185.65;120088;1148;22938;-63
2020/12/24 06:56:23;;;;;;;4.37;0.70;;;;;;;9.56;85.18;99185.14;120295;1148;26382;-62
2020/12/24 06:59:04;;;;;;;2.73;0.73;;;;;;;9.57;85.24;99184.67;120138;1148;25970;-62
2020/12/24 07:01:35;;;;;;;4.78;0.80;;;;;;;9.58;84.97;99200.11;120065;1148;22992;-62
2020/12/24 07:04:06;;;;;;;4.10;0.70;;;;;;;9.59;85.17;99206.45;120150;1147;22942;-62
2020/12/24 07:06:52;;;;;;;4.90;0.80;;;;;;;9.59;84.75;99204.44;120096;1147;24550;-62
2020/12/24 07:09:47;;;;;;;6.70;1.00;;;;;;;9.61;84.27;99212.30;120342;1148;23457;-61
2020/12/24 07:12:35;;;;;;;3.30;0.70;;;;;;;9.61;84.41;99210.27;120212;1148;22917;-63
2020/12/24 07:15:26;;;;;;;3.20;0.70;;;;;;;9.62;84.64;99205.47;120046;1148;22941;-62
2020/12/24 07:17:54;;;;;;;;;;;;;;;9.63;84.44;99210.54;120191;1148;24477;-62
2020/12/24 07:20:26;;;;;;;4.00;0.50;;;;;;;9.64;84.57;99202.95;120301;1148;25709;-63
2020/12/24 07:22:56;;;;;;;4.40;0.57;;;;;;;9.65;84.67;99198.89;120377;1148;22948;-63
2020/12/24 07:25:35;;;;;;;3.47;0.80;;;;;;;9.65;84.99;99196.10;120317;1148;27474;-61
2020/12/24 07:28:14;;;;;;;2.83;0.70;;;;;;;9.67;84.53;99197.13;120357;1148;22969;-62
2020/12/24 07:30:44;;;;;;;4.67;0.80;;;;;;;9.68;84.53;99181.19;120369;1148;24538;-62
2020/12/24 07:33:14;;;;;;;2.80;0.60;;;;;;;9.71;84.63;99171.81;120293;1148;23019;-62
2020/12/24 07:35:46;;;;;;;8.20;1.10;;;;;;;9.71;84.46;99163.45;120293;1150;23061;-62
2020/12/24 07:38:18;;;;;;;3.63;0.60;;;;;;;9.73;84.65;99163.71;120398;1148;22935;-61
2020/12/24 07:40:47;;;;;;;2.73;0.60;;;;;;;9.74;84.58;99168.78;120236;1148;22955;-62
2020/12/24 07:43:17;;;;;;;1.70;0.50;;;;;;;9.77;84.18;99172.60;120405;1147;22951;-63
2020/12/24 07:45:46;;;;;;;2.07;0.50;;;;;;;9.76;83.59;99177.44;120338;1148;22941;-62
2020/12/24 07:48:18;;;;;;;2.67;0.60;;;;;;;9.78;84.40;99186.06;120476;1147;22997;-62
2020/12/24 07:50:49;;;;;;;3.50;0.40;;;;;;;9.81;83.80;99173.13;120342;1148;25900;-62
2020/12/24 07:53:19;;;;;;;4.00;0.60;;;;;;;9.83;84.37;99175.44;120355;1148;22924;-62
2020/12/24 07:55:49;;;;;;;2.70;0.47;;;;;;;9.84;84.07;99165.80;120322;1148;27747;-63
2020/12/24 07:58:19;;;;;;;3.17;0.60;;;;;;;9.86;83.18;99166.06;120245;1148;22955;-62
2020/12/24 08:00:52;;;;;;;4.28;0.57;;;;;;;9.87;84.18;99167.59;120358;1148;23018;-62
2020/12/24 08:03:23;;;;;;;6.37;0.53;;;;;;;9.89;83.86;99173.43;120262;1148;25913;-62
2020/12/24 08:06:03;;;;;;;4.37;0.60;;;;;;;9.89;83.35;99181.80;122660;1147;22909;-62
2020/12/24 08:08:35;;;;;;;2.37;0.50;;;;;;;9.90;83.55;99186.09;120104;1147;27134;-62
2020/12/24 08:11:08;;;;;;;2.00;0.40;;;;;;;9.91;83.36;99193.21;120552;1148;23106;-62
2020/12/24 08:13:38;;;;;;;3.87;0.50;;;;;;;9.93;83.28;99199.79;120687;1147;23053;-62
2020/12/24 08:16:11;;;;;;;6.47;0.80;;;;;;;9.94;83.10;99198.54;120123;1148;22913;-62
2020/12/24 08:18:46;;;;;;;3.17;0.43;;;;;;;9.95;83.77;99194.50;120328;1148;22883;-62
2020/12/24 08:21:26;;;;;;;2.63;0.43;;;;;;;9.95;83.84;99188.93;120190;1148;22938;-62
2020/12/24 08:24:01;;;;;;;3.83;1.07;;;;;;;9.96;84.06;99184.09;120410;1148;22978;-62
2020/12/24 08:26:33;;;;;;;3.00;0.45;;;;;;;9.95;83.85;99194.50;120679;1148;22949;-62
2020/12/24 08:29:06;;;;;;;4.60;0.77;;;;;;;9.94;83.39;99197.77;120248;1148;22946;-62
2020/12/24 08:31:39;;;;;;;4.53;0.67;;;;;;;9.95;83.64;99205.66;120305;1148;22883;-61
2020/12/24 08:34:10;;;;;;;2.87;0.57;;;;;;;9.95;83.07;99202.87;120597;1148;23098;-62
2020/12/24 08:36:45;;;;;;;3.05;0.60;;;;;;;9.94;83.02;99212.48;121364;1147;22977;-62
2020/12/24 08:39:17;;;;;;;4.55;0.70;;;;;;;9.92;82.86;99212.22;120803;1146;23302;-61
2020/12/24 08:41:48;;;;;;;3.85;0.80;;;;;;;9.93;82.78;99219.30;120270;1148;22916;-60
2020/12/24 08:44:20;;;;;;;3.47;0.60;;;;;;;9.94;82.95;99217.28;120109;1148;22901;-60
2020/12/24 08:47:03;;;;;;;5.13;0.90;;;;;;;9.94;82.84;99220.08;120164;1148;24302;-62
2020/12/24 08:49:39;;;;;;;6.80;1.30;;;;;;;9.93;82.75;99210.94;120460;1148;22910;-62
2020/12/24 08:52:17;;;;;;;6.70;1.40;;;;;;;9.94;83.13;99225.65;120081;1148;23819;-61
2020/12/24 08:55:00;;;;;;;4.55;1.10;;;;;;;9.95;82.71;99227.19;120334;1148;22909;-61
2020/12/24 08:57:32;;;;;;;5.50;1.10;;;;;;;9.94;83.25;99226.42;120476;1148;24062;-62
2020/12/24 09:00:05;;;;;;;4.93;0.80;;;;;;;9.93;82.32;99219.30;120386;1148;22983;-62
2020/12/24 09:02:36;;;;;;;7.33;0.90;;;;;;;9.91;82.37;99235.03;120697;1147;25313;-61
2020/12/24 09:05:07;;;;;;;4.37;0.70;;;;;;;9.90;82.47;99237.05;120272;1148;22918;-62
2020/12/24 09:07:37;;;;;;;;;;;;;;;9.89;81.78;99243.87;120188;1148;22942;-61
2020/12/24 09:10:06;;;;;;;;;;;;;;;9.87;82.42;99226.88;120324;1148;21630;-62
2020/12/24 09:12:38;;;;;;;7.17;0.80;;;;;;;9.87;81.63;99214.98;120393;1147;21572;-65
2020/12/24 09:15:09;;;;;;;7.65;1.00;;;;;;;9.87;81.81;99220.56;120035;1148;25973;-61
2020/12/24 09:17:51;;;;;;;3.10;0.50;;;;;;;9.89;81.16;99218.03;120796;1148;23070;-61
2020/12/24 09:20:26;;;;;;;3.27;0.70;;;;;;;9.88;80.70;99202.56;120249;1147;23002;-60
2020/12/24 09:22:57;;;;;;;5.50;0.60;;;;;;;9.87;79.89;99207.36;120267;1148;23200;-61
2020/12/24 09:25:33;;;;;;;4.10;0.60;;;;;;;9.88;80.88;99220.05;120228;1147;25890;-61
2020/12/24 09:28:04;;;;;;;3.50;0.50;;;;;;;9.88;80.54;99208.91;120233;1148;22996;-61
2020/12/24 09:30:34;;;;;;;3.60;0.50;;;;;;;9.88;80.37;99217.27;120137;1148;23006;-61
2020/12/24 09:33:03;;;;;;;2.47;0.47;;;;;;;9.88;80.10;99216.50;119985;1148;22908;-61
2020/12/24 09:35:32;;;;;;;5.13;1.23;;;;;;;9.88;79.41;99210.92;120145;1148;23550;-62
2020/12/24 09:38:01;;;;;;;3.23;0.60;;;;;;;9.89;79.02;99218.03;120174;1148;22939;-61
2020/12/24 09:40:30;;;;;;;6.25;1.00;;;;;;;9.89;78.46;99218.03;120048;1148;25712;-62
2020/12/24 09:43:00;;;;;;;4.87;0.80;;;;;;;9.88;79.20;99194.97;120128;1148;22939;-61
2020/12/24 09:45:30;;;;;;;6.77;1.00;;;;;;;9.88;78.86;99200.54;120233;1148;24589;-62
2020/12/24 09:47:59;;;;;;;4.72;0.60;;;;;;;9.89;79.18;99176.22;119957;1148;22966;-61
2020/12/24 09:50:30;;;;;;;6.33;0.80;;;;;;;9.87;79.43;99157.19;120070;1148;22921;-63
2020/12/24 09:52:59;;;;;;;4.07;0.77;;;;;;;9.86;78.36;99163.27;120153;1147;23077;-64
2020/12/24 09:55:29;;;;;;;4.47;0.83;;;;;;;9.85;78.31;99179.23;119953;1148;22916;-64
2020/12/24 09:57:58;;;;;;;4.25;0.70;;;;;;;9.84;78.11;99191.65;120142;1148;26181;-64
2020/12/24 10:00:27;;;;;;;6.20;0.90;;;;;;;9.84;78.36;99193.67;120050;1147;24680;-63
2020/12/24 10:02:57;;;;;;;8.10;1.00;;;;;;;9.84;78.58;99191.65;119961;1148;22909;-64
2020/12/24 10:05:26;;;;;;;7.33;1.07;;;;;;;9.84;78.12;99188.86;119908;1148;22912;-64
2020/12/24 10:07:57;;;;;;;5.37;1.00;;;;;;;9.84;78.68;99171.38;120010;1148;27444;-64
2020/12/24 10:10:26;;;;;;;3.63;0.70;;;;;;;9.83;77.81;99181.75;120343;1147;22966;-64
2020/12/24 10:12:56;;;;;;;5.97;0.80;;;;;;;9.82;77.54;99180.24;120361;1148;22910;-64
2020/12/24 10:15:25;;;;;;;4.40;0.95;;;;;;;9.81;78.30;99177.95;120135;1148;22932;-65
2020/12/24 10:17:56;;;;;;;3.13;0.50;;;;;;;9.79;78.45;99176.42;120489;1147;22909;-65
2020/12/24 10:20:25;;;;;;;2.85;0.55;;;;;;;9.81;78.29;99172.38;120309;1147;23015;-64
2020/12/24 10:22:54;;;;;;;3.47;0.60;;;;;;;9.79;77.76;99173.63;119864;1148;22939;-64
2020/12/24 10:25:23;;;;;;;2.27;0.40;;;;;;;9.82;77.99;99173.89;120017;1148;22945;-64
2020/12/24 10:27:52;;;;;;;3.60;0.40;;;;;;;9.82;78.37;99169.09;119896;1148;23073;-64
2020/12/24 10:30:23;;;;;;;3.60;0.47;;;;;;;9.77;77.73;99162.22;120151;1148;22941;-65
2020/12/24 10:32:53;;;;;;;3.47;0.60;;;;;;;9.75;77.73;99148.02;120467;1148;22925;-64
2020/12/24 10:35:22;;;;;;;4.50;0.70;;;;;;;9.72;78.50;99160.16;120160;1148;22993;-66
2020/12/24 10:37:51;;;;;;;3.50;1.13;;;;;;;9.69;78.18;99143.68;119987;1148;23399;-65
2020/12/24 10:40:21;;;;;;;3.50;0.70;;;;;;;9.65;77.05;99143.16;120053;1148;25351;-65
2020/12/24 10:42:51;;;;;;;4.10;0.50;;;;;;;9.62;77.16;99158.09;120143;1148;22909;-65
2020/12/24 10:45:20;;;;;;;4.00;0.67;;;;;;;9.60;77.49;99157.84;120137;1148;22996;-63
2020/12/24 10:47:49;;;;;;;3.17;0.67;;;;;;;9.56;76.95;99140.56;119997;1148;22938;-63
2020/12/24 10:50:18;;;;;;;3.10;0.60;;;;;;;9.53;77.41;99142.34;120162;1148;22904;-63
2020/12/24 10:52:47;;;;;;;3.67;0.60;;;;;;;9.51;77.37;99138.53;119856;1148;22996;-66
2020/12/24 10:55:16;;;;;;;5.45;0.80;;;;;;;9.48;76.79;99145.85;119817;1148;22966;-66
2020/12/24 10:57:46;;;;;;;2.10;0.30;;;;;;;9.45;75.60;99152.44;119863;1148;22942;-66
2020/12/24 11:00:15;;;;;;;3.83;0.50;;;;;;;9.45;75.32;99154.45;119897;1148;22945;-66
2020/12/24 11:02:45;;;;;;;4.93;0.80;;;;;;;9.44;75.40;99153.68;119900;1148;28550;-66
2020/12/24 11:05:15;;;;;;;5.00;0.50;;;;;;;9.45;75.28;99151.66;119898;1148;22868;-67
2020/12/24 11:07:44;;;;;;;4.00;0.50;;;;;;;9.43;75.20;99159.76;120182;1147;23374;-66
2020/12/24 11:10:14;;;;;;;3.53;0.60;;;;;;;9.40;75.10;99150.36;119948;1148;23015;-66
2020/12/24 11:12:44;;;;;;;3.45;0.40;;;;;;;9.38;75.62;99130.60;120136;1147;23103;-69
2020/12/24 11:15:14;;;;;;;2.92;0.50;;;;;;;9.38;75.15;99132.62;120843;1148;22916;-69
2020/12/24 11:17:43;;;;;;;2.93;0.70;;;;;;;9.39;75.18;99131.38;120015;1148;25722;-68
2020/12/24 11:20:12;;;;;;;4.87;0.80;;;;;;;9.37;75.44;99137.42;119915;1148;23006;-66
2020/12/24 11:22:42;;;;;;;4.40;0.60;;;;;;;9.37;74.66;99131.11;120414;1148;22941;-66
2020/12/24 11:25:11;;;;;;;5.05;0.60;;;;;;;9.36;74.81;99140.70;122485;1148;22913;-65
2020/12/24 11:27:43;;;;;;;2.60;0.57;;;;;;;9.34;75.25;99130.07;120007;1148;22921;-66
2020/12/24 11:30:12;;;;;;;5.97;0.60;;;;;;;9.34;74.48;99144.00;120209;1148;22946;-65
2020/12/24 11:32:45;;;;;;;5.47;0.80;;;;;;;9.34;75.25;99132.09;120078;1148;27322;-68
2020/12/24 11:35:15;;;;;;;7.37;1.40;;;;;;;9.33;74.98;99095.11;120221;1148;22995;-70
2020/12/24 11:37:44;;;;;;;3.95;0.80;;;;;;;9.32;74.85;99101.19;120882;1148;22910;-66
2020/12/24 11:40:14;;;;;;;4.47;0.60;;;;;;;9.31;74.52;99089.28;120111;1146;23074;-66
2020/12/24 11:42:43;;;;;;;7.35;1.10;;;;;;;9.31;74.57;99086.49;120107;1148;22936;-67
2020/12/24 11:45:12;;;;;;;5.37;0.90;;;;;;;9.33;74.43;99089.54;119909;1148;22992;-66
2020/12/24 11:47:43;;;;;;;5.67;1.13;;;;;;;9.35;74.97;99087.02;120142;1147;22953;-66
2020/12/24 11:50:11;;;;;;;;;;;;;;;9.38;74.86;99086.03;120027;1148;22931;-66